Time;durP1;ratioP1;P1;durP2;ratioP2;P2;SDS_P1;SDS_P2;PMS_P1;PMS_P2;Temp;Humidity;BMP_temperature;BMP_pressure;BME280_temperature;BME280_humidity;BME280_pressure;Samples;Min_cycle;Max_cycle;Signal;HPM_P1;HPM_P2
2024/03/04 00:01:56;;;;;;;5.43;3.50;;;;;;;;;;4918433;29;20192;-90
2024/03/04 00:05:00;;;;;;;4.60;3.33;;;;;;;;;;4918348;29;20184;-90
2024/03/04 00:08:05;;;;;;;4.67;3.40;;;;;;;;;;4928673;29;20188;-90
2024/03/04 00:11:11;;;;;;;6.07;3.63;;;;;;;;;;4929207;29;20223;-90
2024/03/04 00:14:16;;;;;;;5.70;3.27;;;;;;;;;;4940236;29;20180;-91
2024/03/04 00:17:20;;;;;;;6.43;3.30;;;;;;;;;;4928936;29;20188;-90
2024/03/04 00:20:24;;;;;;;5.67;3.37;;;;;;;;;;4940198;29;20578;-91
2024/03/04 00:23:29;;;;;;;4.90;3.00;;;;;;;;;;4928956;29;20188;-90
2024/03/04 00:26:35;;;;;;;5.23;3.20;;;;;;;;;;4917765;29;20642;-91
2024/03/04 00:29:39;;;;;;;5.03;2.77;;;;;;;;;;4939288;29;20228;-90
2024/03/04 00:32:44;;;;;;;4.90;2.90;;;;;;;;;;4918183;29;20219;-90
2024/03/04 00:35:49;;;;;;;4.90;2.97;;;;;;;;;;4928487;29;20188;-90
2024/03/04 00:38:57;;;;;;;5.57;3.47;;;;;;;;;;4939116;29;20188;-90
2024/03/04 00:42:01;;;;;;;6.20;3.20;;;;;;;;;;4928186;29;20193;-90
2024/03/04 00:45:06;;;;;;;5.23;3.40;;;;;;;;;;4928431;29;20188;-90
2024/03/04 00:48:10;;;;;;;4.63;2.90;;;;;;;;;;4917330;29;20211;-90
2024/03/04 00:51:15;;;;;;;6.77;3.13;;;;;;;;;;4939722;29;20231;-91
2024/03/04 00:54:19;;;;;;;7.53;2.93;;;;;;;;;;4939220;29;20184;-90
2024/03/04 00:57:23;;;;;;;4.83;3.10;;;;;;;;;;4938761;29;20192;-91
2024/03/04 01:00:27;;;;;;;7.87;3.50;;;;;;;;;;4938503;29;20709;-90
2024/03/04 01:03:32;;;;;;;5.50;3.33;;;;;;;;;;4939132;29;20184;-90
2024/03/04 01:06:38;;;;;;;4.07;3.17;;;;;;;;;;4927652;29;20196;-90
2024/03/04 01:09:42;;;;;;;5.23;3.40;;;;;;;;;;4927647;29;20223;-90
2024/03/04 01:12:47;;;;;;;5.13;3.10;;;;;;;;;;4937931;29;20220;-90
2024/03/04 01:16:06;;;;;;;9.37;3.33;;;;;;;;;;4927536;29;20531;-90
2024/03/04 01:20:26;;;;;;;4.73;3.40;;;;;;;;;;4938056;29;20223;-90
2024/03/04 01:23:30;;;;;;;5.70;3.60;;;;;;;;;;4916368;29;20188;-90
2024/03/04 01:26:36;;;;;;;8.50;3.90;;;;;;;;;;4927511;29;20196;-90
2024/03/04 01:29:43;;;;;;;4.63;3.43;;;;;;;;;;4916413;29;20220;-90
2024/03/04 01:32:47;;;;;;;6.67;3.63;;;;;;;;;;4938535;29;20220;-91
2024/03/04 01:35:51;;;;;;;6.40;3.73;;;;;;;;;;4916182;29;20184;-90
2024/03/04 01:38:55;;;;;;;5.17;3.53;;;;;;;;;;4927255;29;20196;-91
2024/03/04 01:42:01;;;;;;;4.40;3.30;;;;;;;;;;4916541;29;20184;-90
2024/03/04 01:45:15;;;;;;;7.13;3.77;;;;;;;;;;4938354;29;20188;-90
2024/03/04 01:48:19;;;;;;;7.43;4.10;;;;;;;;;;4915814;29;20207;-90
2024/03/04 01:51:23;;;;;;;7.17;3.67;;;;;;;;;;4916042;29;20224;-90
2024/03/04 01:54:29;;;;;;;5.47;3.73;;;;;;;;;;4938624;29;20220;-90
2024/03/04 01:57:33;;;;;;;5.47;3.67;;;;;;;;;;4937998;29;20646;-90
2024/03/04 02:00:42;;;;;;;8.23;3.10;;;;;;;;;;4915901;29;20231;-90
2024/03/04 02:03:47;;;;;;;5.97;3.43;;;;;;;;;;4926589;29;20180;-90
2024/03/04 02:06:52;;;;;;;8.10;3.60;;;;;;;;;;4916140;29;20188;-90
2024/03/04 02:09:57;;;;;;;7.17;3.80;;;;;;;;;;4937690;29;20228;-90
2024/03/04 02:13:02;;;;;;;6.70;4.10;;;;;;;;;;4938311;29;20241;-90
2024/03/04 02:16:08;;;;;;;6.60;3.80;;;;;;;;;;4915338;29;20192;-90
2024/03/04 02:19:18;;;;;;;6.00;3.53;;;;;;;;;;4915369;29;20630;-89
2024/03/04 02:22:26;;;;;;;5.13;3.60;;;;;;;;;;4937975;29;20519;-90
2024/03/04 02:25:34;;;;;;;5.70;3.53;;;;;;;;;;4926497;29;20192;-90
2024/03/04 02:28:39;;;;;;;4.30;3.03;;;;;;;;;;4937764;29;20612;-90
2024/03/04 02:31:43;;;;;;;4.57;3.10;;;;;;;;;;4928849;29;20218;-90
2024/03/04 02:34:48;;;;;;;3.50;2.83;;;;;;;;;;4919321;29;20594;-90
2024/03/04 02:37:52;;;;;;;5.77;2.90;;;;;;;;;;4919054;29;20188;-90
2024/03/04 02:40:59;;;;;;;4.37;3.10;;;;;;;;;;4934052;29;20228;-90
2024/03/04 02:44:04;;;;;;;6.13;3.70;;;;;;;;;;4932386;29;20193;-90
2024/03/04 02:47:08;;;;;;;7.20;2.90;;;;;;;;;;4940148;29;20211;-90
2024/03/04 02:50:14;;;;;;;5.00;3.23;;;;;;;;;;4940096;29;20717;-90
2024/03/04 02:53:17;;;;;;;5.00;3.13;;;;;;;;;;4941108;29;20220;-90
2024/03/04 02:56:22;;;;;;;5.93;3.30;;;;;;;;;;4940031;29;20184;-90
2024/03/04 02:59:26;;;;;;;4.67;3.67;;;;;;;;;;4940526;29;20635;-89
2024/03/04 03:02:30;;;;;;;4.93;3.27;;;;;;;;;;4918550;29;20191;-91
2024/03/04 03:05:34;;;;;;;5.67;3.17;;;;;;;;;;4941004;29;20193;-92
2024/03/04 03:08:38;;;;;;;4.27;3.03;;;;;;;;;;4929282;29;20184;-91
2024/03/04 03:11:43;;;;;;;5.87;3.10;;;;;;;;;;4940374;29;20184;-91
2024/03/04 03:14:47;;;;;;;3.43;2.57;;;;;;;;;;4919054;29;20220;-91
2024/03/04 03:17:52;;;;;;;3.80;2.80;;;;;;;;;;4929862;29;20635;-91
2024/03/04 03:20:56;;;;;;;4.67;2.97;;;;;;;;;;4940595;29;20228;-90
2024/03/04 03:24:00;;;;;;;4.27;3.17;;;;;;;;;;4928910;29;20184;-90
2024/03/04 03:27:05;;;;;;;3.10;2.63;;;;;;;;;;4929517;29;20654;-91
2024/03/04 03:30:09;;;;;;;5.63;3.03;;;;;;;;;;4918179;29;20232;-91
2024/03/04 03:33:13;;;;;;;4.70;2.90;;;;;;;;;;4918885;29;20216;-91
2024/03/04 03:36:17;;;;;;;7.00;2.67;;;;;;;;;;4939673;29;20188;-91
2024/03/04 03:39:21;;;;;;;4.83;2.93;;;;;;;;;;4929016;29;20188;-91
2024/03/04 03:42:25;;;;;;;3.27;2.60;;;;;;;;;;4927916;29;20188;-91
2024/03/04 03:45:31;;;;;;;7.33;2.97;;;;;;;;;;4940328;29;20542;-90
2024/03/04 03:48:35;;;;;;;3.77;2.60;;;;;;;;;;4930264;29;20220;-88
2024/03/04 03:51:39;;;;;;;4.13;2.97;;;;;;;;;;4917845;29;20188;-87
2024/03/04 03:54:43;;;;;;;2.97;2.53;;;;;;;;;;4939277;29;20219;-87
2024/03/04 03:57:48;;;;;;;4.50;3.17;;;;;;;;;;4917205;29;20192;-87
2024/03/04 04:00:52;;;;;;;6.23;3.20;;;;;;;;;;4939029;29;20228;-88
2024/03/04 04:03:56;;;;;;;6.63;4.17;;;;;;;;;;4928003;29;20646;-87
2024/03/04 04:07:00;;;;;;;8.43;4.27;;;;;;;;;;4940080;29;20193;-87
2024/03/04 04:10:05;;;;;;;6.60;4.13;;;;;;;;;;4939757;29;20566;-87
2024/03/04 04:13:09;;;;;;;5.70;3.80;;;;;;;;;;4938126;29;20284;-87
2024/03/04 04:16:14;;;;;;;5.33;3.17;;;;;;;;;;4939621;29;20626;-87
2024/03/04 04:19:18;;;;;;;6.60;3.40;;;;;;;;;;4938918;29;20188;-87
2024/03/04 04:22:22;;;;;;;6.33;4.30;;;;;;;;;;4927922;29;20185;-87
2024/03/04 04:25:26;;;;;;;4.60;3.73;;;;;;;;;;4919356;29;20184;-87
2024/03/04 04:28:31;;;;;;;7.43;4.40;;;;;;;;;;4940684;29;20188;-87
2024/03/04 04:31:35;;;;;;;7.60;4.30;;;;;;;;;;4927570;29;20192;-87
2024/03/04 04:34:43;;;;;;;5.93;4.37;;;;;;;;;;4916422;29;20216;-88
2024/03/04 04:37:47;;;;;;;8.07;4.27;;;;;;;;;;4926807;29;20192;-88
2024/03/04 04:40:52;;;;;;;8.00;4.70;;;;;;;;;;4927334;29;20223;-88
2024/03/04 04:43:56;;;;;;;10.37;4.70;;;;;;;;;;4927005;29;20188;-88
2024/03/04 04:47:01;;;;;;;7.83;5.17;;;;;;;;;;4927238;29;20216;-88
2024/03/04 04:50:05;;;;;;;8.90;5.30;;;;;;;;;;4905102;29;20215;-88
2024/03/04 04:53:10;;;;;;;8.37;4.83;;;;;;;;;;4937172;29;20192;-88
2024/03/04 04:56:17;;;;;;;8.90;5.53;;;;;;;;;;4937649;29;20188;-88
2024/03/04 04:59:21;;;;;;;8.70;5.77;;;;;;;;;;4938255;29;20643;-88
2024/03/04 05:02:28;;;;;;;8.83;5.80;;;;;;;;;;4915748;29;20192;-88
2024/03/04 05:05:33;;;;;;;9.33;5.93;;;;;;;;;;4926459;29;20188;-88
2024/03/04 05:08:37;;;;;;;8.93;5.67;;;;;;;;;;4937356;29;20188;-88
2024/03/04 05:11:41;;;;;;;9.70;5.37;;;;;;;;;;4926304;29;20192;-88
2024/03/04 05:14:46;;;;;;;12.87;6.50;;;;;;;;;;4926156;29;20673;-87
2024/03/04 05:17:50;;;;;;;11.27;6.77;;;;;;;;;;4937808;29;20184;-87
2024/03/04 05:20:54;;;;;;;10.03;6.70;;;;;;;;;;4937163;29;20228;-88
2024/03/04 05:23:59;;;;;;;11.63;6.77;;;;;;;;;;4938150;29;20188;-88
2024/03/04 05:27:03;;;;;;;9.23;7.10;;;;;;;;;;4925893;29;20192;-88
2024/03/04 05:30:08;;;;;;;9.40;7.03;;;;;;;;;;4914943;29;20224;-88
2024/03/04 05:33:12;;;;;;;10.43;7.30;;;;;;;;;;4915975;29;20188;-88
2024/03/04 05:36:17;;;;;;;11.10;7.33;;;;;;;;;;4927525;29;20184;-88
2024/03/04 05:39:21;;;;;;;12.07;7.43;;;;;;;;;;4937594;29;20650;-87
2024/03/04 05:42:25;;;;;;;10.57;7.73;;;;;;;;;;4925920;29;20662;-87
2024/03/04 05:45:30;;;;;;;13.13;8.10;;;;;;;;;;4937245;29;20188;-88
2024/03/04 05:48:34;;;;;;;13.17;8.07;;;;;;;;;;4936663;29;20215;-88
2024/03/04 05:51:42;;;;;;;11.43;8.30;;;;;;;;;;4925506;29;20192;-87
2024/03/04 05:54:46;;;;;;;14.07;8.90;;;;;;;;;;4937747;29;20220;-88
2024/03/04 05:57:50;;;;;;;12.60;8.17;;;;;;;;;;4938683;29;20661;-87
2024/03/04 06:01:59;;;;;;;13.17;9.00;;;;;;;;;;5114826;27;20345;-88
2024/03/04 06:05:04;;;;;;;16.90;10.43;;;;;;;;;;5101461;28;20185;-87
2024/03/04 06:08:08;;;;;;;14.40;9.73;;;;;;;;;;5100992;28;20547;-87
2024/03/04 06:11:13;;;;;;;19.83;11.80;;;;;;;;;;5113535;28;20206;-88
2024/03/04 06:14:18;;;;;;;14.07;9.37;;;;;;;;;;5089109;28;20178;-88
2024/03/04 06:17:22;;;;;;;14.33;9.57;;;;;;;;;;5100537;28;20555;-87
2024/03/04 06:20:27;;;;;;;13.53;8.70;;;;;;;;;;5088644;28;20225;-88
2024/03/04 06:23:30;;;;;;;15.60;9.47;;;;;;;;;;5101546;28;20623;-88
2024/03/04 06:26:35;;;;;;;15.37;10.43;;;;;;;;;;5113226;28;20178;-87
2024/03/04 06:29:39;;;;;;;18.73;11.10;;;;;;;;;;5112044;28;20564;-87
2024/03/04 06:32:44;;;;;;;15.00;11.07;;;;;;;;;;5112336;28;20516;-87
2024/03/04 06:35:48;;;;;;;16.93;11.43;;;;;;;;;;5104135;28;20178;-87
2024/03/04 06:38:53;;;;;;;18.27;11.47;;;;;;;;;;5102827;28;20178;-87
2024/03/04 06:41:59;;;;;;;20.63;12.67;;;;;;;;;;5102875;28;20206;-86
2024/03/04 06:45:04;;;;;;;25.97;14.63;;;;;;;;;;5103778;28;20182;-86
2024/03/04 06:48:09;;;;;;;23.40;15.40;;;;;;;;;;5088956;28;20174;-87
2024/03/04 06:51:13;;;;;;;43.00;26.30;;;;;;;;;;5114508;28;20524;-87
2024/03/04 06:54:18;;;;;;;35.23;23.90;;;;;;;;;;5102462;28;20175;-86
2024/03/04 06:57:22;;;;;;;29.70;19.53;;;;;;;;;;5090594;28;20190;-87
2024/03/04 07:00:26;;;;;;;31.67;19.10;;;;;;;;;;5100469;28;20225;-86
2024/03/04 07:03:31;;;;;;;30.83;19.57;;;;;;;;;;5088752;28;20178;-86
2024/03/04 07:06:35;;;;;;;28.50;18.50;;;;;;;;;;5088669;28;20179;-87
2024/03/04 07:09:39;;;;;;;27.27;17.93;;;;;;;;;;5100172;28;20222;-86
2024/03/04 07:12:43;;;;;;;27.77;17.60;;;;;;;;;;5078923;28;20175;-87
2024/03/04 07:15:47;;;;;;;26.93;17.37;;;;;;;;;;5099219;28;20623;-87
2024/03/04 07:18:52;;;;;;;26.07;17.43;;;;;;;;;;5098601;28;20183;-87
2024/03/04 07:21:56;;;;;;;31.67;21.70;;;;;;;;;;5075264;28;20210;-86
2024/03/04 07:25:01;;;;;;;27.77;18.30;;;;;;;;;;5086897;28;20174;-86
2024/03/04 07:28:05;;;;;;;31.47;19.43;;;;;;;;;;5098303;28;20647;-86
2024/03/04 07:31:11;;;;;;;27.73;17.43;;;;;;;;;;5076082;28;20215;-88
2024/03/04 07:34:16;;;;;;;29.03;18.33;;;;;;;;;;5077256;28;20175;-88
2024/03/04 07:37:20;;;;;;;26.90;17.70;;;;;;;;;;5076934;28;20179;-86
2024/03/04 07:40:24;;;;;;;26.07;17.53;;;;;;;;;;5101137;28;20226;-86
2024/03/04 07:43:29;;;;;;;27.97;18.63;;;;;;;;;;5088912;28;20183;-86
2024/03/04 07:46:32;;;;;;;27.20;17.70;;;;;;;;;;5078000;28;20195;-87
2024/03/04 07:49:36;;;;;;;28.00;18.13;;;;;;;;;;5077558;28;20218;-86
2024/03/04 07:52:41;;;;;;;28.60;18.87;;;;;;;;;;5088158;28;20175;-86
2024/03/04 07:55:45;;;;;;;34.40;18.57;;;;;;;;;;5088928;28;20175;-88
2024/03/04 07:58:49;;;;;;;32.40;19.00;;;;;;;;;;5076874;28;20179;-86
2024/03/04 08:01:55;;;;;;;32.87;19.60;;;;;;;;;;5075891;28;20226;-87
2024/03/04 08:04:59;;;;;;;27.33;18.17;;;;;;;;;;5086551;28;20179;-87
2024/03/04 08:08:04;;;;;;;28.87;18.77;;;;;;;;;;5099356;28;20179;-87
2024/03/04 08:11:09;;;;;;;33.93;17.67;;;;;;;;;;5075976;28;20214;-87
2024/03/04 08:14:14;;;;;;;26.47;17.93;;;;;;;;;;5098656;28;20186;-87
2024/03/04 08:17:18;;;;;;;35.50;23.33;;;;;;;;;;5085844;28;20178;-87
2024/03/04 08:20:23;;;;;;;29.87;19.00;;;;;;;;;;5085407;28;20222;-87
2024/03/04 08:23:33;;;;;;;30.07;18.27;;;;;;;;;;5072596;28;20521;-86
2024/03/04 08:26:37;;;;;;;27.90;18.67;;;;;;;;;;5086231;28;20179;-86
2024/03/04 08:29:41;;;;;;;27.43;18.30;;;;;;;;;;5086226;28;20219;-86
2024/03/04 08:32:45;;;;;;;30.40;21.63;;;;;;;;;;5073980;28;20179;-87
2024/03/04 08:35:50;;;;;;;27.77;19.43;;;;;;;;;;5085250;28;20179;-87
2024/03/04 08:38:54;;;;;;;41.83;25.80;;;;;;;;;;5074356;28;20183;-87
2024/03/04 08:41:58;;;;;;;31.47;21.57;;;;;;;;;;5074841;28;20211;-87
2024/03/04 08:45:02;;;;;;;35.20;24.40;;;;;;;;;;5075421;28;20179;-86
2024/03/04 08:48:08;;;;;;;30.67;21.03;;;;;;;;;;5087966;28;20520;-86
2024/03/04 08:51:12;;;;;;;29.93;19.17;;;;;;;;;;5086762;28;20211;-86
2024/03/04 08:54:16;;;;;;;27.53;18.03;;;;;;;;;;5087927;28;20179;-86
2024/03/04 08:57:20;;;;;;;29.90;19.53;;;;;;;;;;5074836;28;20175;-87
2024/03/04 09:00:24;;;;;;;29.63;18.80;;;;;;;;;;5086252;28;20229;-87
2024/03/04 09:03:29;;;;;;;28.27;19.07;;;;;;;;;;5085956;28;20183;-88
2024/03/04 09:06:34;;;;;;;30.47;20.00;;;;;;;;;;5084777;28;20175;-88
2024/03/04 09:09:37;;;;;;;29.27;18.90;;;;;;;;;;5096713;28;20210;-87
2024/03/04 09:12:42;;;;;;;25.90;17.17;;;;;;;;;;5074711;28;20644;-87
2024/03/04 09:15:46;;;;;;;25.40;17.23;;;;;;;;;;5079280;28;20182;-87
2024/03/04 09:18:51;;;;;;;28.47;17.77;;;;;;;;;;5081302;28;20183;-87
2024/03/04 09:21:55;;;;;;;25.03;18.27;;;;;;;;;;5081681;28;20199;-87
2024/03/04 09:24:59;;;;;;;25.30;17.80;;;;;;;;;;5092569;28;20183;-87
2024/03/04 09:28:04;;;;;;;24.97;16.90;;;;;;;;;;5093623;28;20182;-88
2024/03/04 09:31:09;;;;;;;25.27;17.67;;;;;;;;;;5093760;28;20210;-88
2024/03/04 09:34:13;;;;;;;26.30;16.43;;;;;;;;;;5091624;28;20187;-87
2024/03/04 09:37:18;;;;;;;24.63;16.77;;;;;;;;;;5079718;28;20524;-87
2024/03/04 09:40:22;;;;;;;23.07;16.47;;;;;;;;;;5080027;28;20210;-87
2024/03/04 09:43:41;;;;;;;31.43;22.00;;;;;;;;;;5092277;28;20175;-88
2024/03/04 09:46:48;;;;;;;24.13;17.20;;;;;;;;;;5080392;28;20171;-88
2024/03/04 09:50:52;;;;;;;24.27;17.17;;;;;;;;;;5112759;28;20206;-90
2024/03/04 09:53:57;;;;;;;21.97;15.77;;;;;;;;;;5078356;28;20517;-88
2024/03/04 09:57:03;;;;;;;27.27;16.80;;;;;;;;;;5078129;28;20183;-88
2024/03/04 10:00:13;;;;;;;26.97;15.60;;;;;;;;;;5077614;28;20226;-87
2024/03/04 10:03:18;;;;;;;26.23;17.07;;;;;;;;;;5100657;28;20171;-89
2024/03/04 10:06:23;;;;;;;25.43;16.67;;;;;;;;;;5077397;28;20620;-88
2024/03/04 10:09:27;;;;;;;23.47;16.80;;;;;;;;;;5088400;28;20170;-88
2024/03/04 10:12:31;;;;;;;26.73;16.60;;;;;;;;;;5087909;28;20175;-87
2024/03/04 10:15:38;;;;;;;23.67;16.43;;;;;;;;;;5087622;28;20178;-88
2024/03/04 10:18:56;;;;;;;26.10;17.27;;;;;;;;;;5086829;28;20179;-87
2024/03/04 10:22:00;;;;;;;25.60;17.20;;;;;;;;;;5098379;28;20656;-88
2024/03/04 10:25:14;;;;;;;26.07;16.43;;;;;;;;;;5086128;28;20187;-88
2024/03/04 10:28:35;;;;;;;24.27;16.17;;;;;;;;;;5074512;28;20171;-88
2024/03/04 10:31:52;;;;;;;27.77;15.80;;;;;;;;;;5085490;28;20172;-88
2024/03/04 10:35:04;;;;;;;25.00;16.33;;;;;;;;;;5085362;28;20183;-88
2024/03/04 10:38:09;;;;;;;24.50;17.20;;;;;;;;;;5097210;28;20183;-88
2024/03/04 10:41:18;;;;;;;24.83;16.67;;;;;;;;;;5096096;28;20226;-87
2024/03/04 10:44:23;;;;;;;25.23;16.73;;;;;;;;;;5072417;28;20191;-87
2024/03/04 10:47:30;;;;;;;27.97;15.70;;;;;;;;;;5098117;28;20520;-87
2024/03/04 10:50:34;;;;;;;29.90;19.50;;;;;;;;;;5087868;28;20248;-87
2024/03/04 10:53:39;;;;;;;23.97;15.80;;;;;;;;;;5087434;28;20270;-87
2024/03/04 10:56:55;;;;;;;31.07;17.87;;;;;;;;;;5087511;28;20179;-88
2024/03/04 11:03:57;;;;;;;24.63;16.97;;;;;;;;;;5099424;28;20167;-89
2024/03/04 11:07:39;;;;;;;25.60;16.40;;;;;;;;;;5098324;28;20199;-89
2024/03/04 11:11:20;;;;;;;26.73;16.40;;;;;;;;;;5090303;28;20222;-89
2024/03/04 11:14:43;;;;;;;24.83;16.00;;;;;;;;;;5088080;28;20183;-89
2024/03/04 11:23:23;;;;;;;22.37;15.70;;;;;;;;;;5080749;28;20743;-89
2024/03/04 11:26:28;;;;;;;25.57;16.77;;;;;;;;;;5079746;28;20567;-89
2024/03/04 11:29:35;;;;;;;24.13;16.57;;;;;;;;;;5094035;28;20209;-88
2024/03/04 11:32:39;;;;;;;29.10;17.97;;;;;;;;;;5086315;28;20179;-86
2024/03/04 11:35:44;;;;;;;26.13;17.23;;;;;;;;;;5087760;28;20179;-87
2024/03/04 11:38:51;;;;;;;25.70;17.77;;;;;;;;;;5099449;28;20182;-88
2024/03/04 11:41:55;;;;;;;25.67;16.33;;;;;;;;;;5098756;28;20215;-88
2024/03/04 11:45:01;;;;;;;25.17;16.70;;;;;;;;;;5087050;28;20186;-87
2024/03/04 11:48:27;;;;;;;25.73;16.10;;;;;;;;;;5086509;28;20650;-87
2024/03/04 11:51:46;;;;;;;26.70;17.13;;;;;;;;;;5098047;28;20207;-88
2024/03/04 11:54:50;;;;;;;28.63;18.83;;;;;;;;;;5098014;28;20175;-88
2024/03/04 11:57:55;;;;;;;29.13;17.97;;;;;;;;;;5097497;28;20183;-87
2024/03/04 12:01:00;;;;;;;31.43;19.07;;;;;;;;;;5097285;28;20226;-88
2024/03/04 12:04:06;;;;;;;38.77;19.07;;;;;;;;;;5097098;28;20632;-87
2024/03/04 12:07:10;;;;;;;31.23;18.47;;;;;;;;;;5085837;28;20636;-87
2024/03/04 12:10:17;;;;;;;27.37;18.43;;;;;;;;;;5085720;28;20214;-89
2024/03/04 12:13:22;;;;;;;30.20;19.30;;;;;;;;;;5085097;28;20522;-89
2024/03/04 12:16:26;;;;;;;24.90;17.20;;;;;;;;;;5085516;28;20183;-88
2024/03/04 12:19:30;;;;;;;30.27;19.80;;;;;;;;;;5096883;28;20210;-88
2024/03/04 12:22:37;;;;;;;28.80;20.07;;;;;;;;;;5073542;28;20219;-88
2024/03/04 12:25:41;;;;;;;28.13;18.83;;;;;;;;;;5096662;28;20182;-89
2024/03/04 12:28:57;;;;;;;32.43;18.83;;;;;;;;;;5096276;28;20174;-88
2024/03/04 12:32:01;;;;;;;28.63;18.47;;;;;;;;;;5096328;28;20182;-89
2024/03/04 12:35:14;;;;;;;30.13;18.63;;;;;;;;;;5096211;28;20202;-88
2024/03/04 12:38:26;;;;;;;26.50;18.67;;;;;;;;;;5085020;28;20175;-89
2024/03/04 12:41:32;;;;;;;24.70;16.67;;;;;;;;;;5096216;28;20210;-88
2024/03/04 12:44:37;;;;;;;29.13;18.40;;;;;;;;;;5085066;28;20174;-89
2024/03/04 12:47:41;;;;;;;26.53;18.63;;;;;;;;;;5073888;28;20201;-90
2024/03/04 12:50:45;;;;;;;33.70;19.33;;;;;;;;;;5084574;28;20221;-90
2024/03/04 12:53:51;;;;;;;25.80;17.63;;;;;;;;;;5085172;28;20190;-88
2024/03/04 12:57:00;;;;;;;30.53;19.93;;;;;;;;;;5073134;28;20667;-90
2024/03/04 13:00:04;;;;;;;41.90;20.80;;;;;;;;;;5084530;28;20753;-88
2024/03/04 13:03:08;;;;;;;33.70;20.90;;;;;;;;;;5085042;28;20215;-89
2024/03/04 13:06:13;;;;;;;62.83;29.07;;;;;;;;;;5095789;28;20174;-90
2024/03/04 13:09:18;;;;;;;37.00;21.70;;;;;;;;;;5072782;28;20183;-87
2024/03/04 13:12:22;;;;;;;27.83;18.93;;;;;;;;;;5096109;28;20171;-87
2024/03/04 13:15:26;;;;;;;33.37;19.63;;;;;;;;;;5096530;28;20634;-87
2024/03/04 13:18:31;;;;;;;32.73;20.10;;;;;;;;;;5084561;28;20179;-88
2024/03/04 13:21:35;;;;;;;33.67;19.37;;;;;;;;;;5096254;28;20218;-88
2024/03/04 13:24:41;;;;;;;29.47;19.23;;;;;;;;;;5072966;28;20167;-87
2024/03/04 13:27:46;;;;;;;29.07;18.07;;;;;;;;;;5096863;28;20187;-87
2024/03/04 13:30:50;;;;;;;34.60;19.60;;;;;;;;;;5084741;28;20219;-88
2024/03/04 13:33:54;;;;;;;31.60;19.63;;;;;;;;;;5096204;28;20180;-88
2024/03/04 13:36:58;;;;;;;32.63;19.43;;;;;;;;;;5083830;28;20183;-88
2024/03/04 13:40:06;;;;;;;29.73;19.07;;;;;;;;;;5084592;28;20214;-87
2024/03/04 13:43:10;;;;;;;28.80;19.17;;;;;;;;;;5096276;28;20202;-87
2024/03/04 13:46:16;;;;;;;26.33;18.00;;;;;;;;;;5095617;28;20205;-88
2024/03/04 13:49:20;;;;;;;28.50;18.30;;;;;;;;;;5073048;28;20178;-88
2024/03/04 13:52:24;;;;;;;30.87;19.07;;;;;;;;;;5095867;28;20182;-88
2024/03/04 13:55:29;;;;;;;29.87;19.03;;;;;;;;;;5083689;28;20175;-87
2024/03/04 13:58:33;;;;;;;28.80;18.43;;;;;;;;;;5083809;28;20179;-87
2024/03/04 14:01:38;;;;;;;29.77;18.67;;;;;;;;;;5083531;28;20678;-88
2024/03/04 14:04:42;;;;;;;28.60;18.20;;;;;;;;;;5083935;28;20167;-88
2024/03/04 14:07:46;;;;;;;27.73;18.00;;;;;;;;;;5083989;28;20187;-87
2024/03/04 14:10:50;;;;;;;38.50;19.40;;;;;;;;;;5085681;28;20218;-88
2024/03/04 14:13:55;;;;;;;31.50;18.70;;;;;;;;;;5085723;28;20520;-88
2024/03/04 14:16:59;;;;;;;35.00;19.00;;;;;;;;;;5095697;28;20179;-87
2024/03/04 14:20:05;;;;;;;26.40;18.03;;;;;;;;;;5096386;28;20214;-87
2024/03/04 14:23:09;;;;;;;28.20;17.97;;;;;;;;;;5098154;28;20552;-87
2024/03/04 14:26:14;;;;;;;31.63;18.63;;;;;;;;;;5099708;28;20183;-87
2024/03/04 14:29:18;;;;;;;28.20;17.27;;;;;;;;;;5087721;28;20183;-88
2024/03/04 14:32:22;;;;;;;27.10;17.07;;;;;;;;;;5099535;28;20179;-87
2024/03/04 14:35:26;;;;;;;28.50;19.70;;;;;;;;;;5099348;28;20179;-87
2024/03/04 14:38:31;;;;;;;29.50;18.60;;;;;;;;;;5099124;28;20632;-87
2024/03/04 14:41:35;;;;;;;46.63;19.37;;;;;;;;;;5098390;28;20214;-87
2024/03/04 14:44:44;;;;;;;30.23;18.43;;;;;;;;;;5099354;28;20171;-88
2024/03/04 14:47:48;;;;;;;29.70;18.37;;;;;;;;;;5088813;28;20183;-88
2024/03/04 14:50:54;;;;;;;30.27;17.70;;;;;;;;;;5088328;28;20691;-88
2024/03/04 14:53:58;;;;;;;28.53;18.77;;;;;;;;;;5099446;28;20175;-88
2024/03/04 14:57:03;;;;;;;28.07;17.60;;;;;;;;;;5087985;28;20648;-87
2024/03/04 15:00:10;;;;;;;26.90;17.80;;;;;;;;;;5099359;28;20230;-87
2024/03/04 15:03:14;;;;;;;29.87;18.30;;;;;;;;;;5076317;28;20203;-87
2024/03/04 15:06:19;;;;;;;29.40;17.63;;;;;;;;;;5076068;28;20179;-88
2024/03/04 15:09:23;;;;;;;31.37;18.77;;;;;;;;;;5099915;28;20179;-87
2024/03/04 15:12:27;;;;;;;28.90;18.73;;;;;;;;;;5088235;28;20182;-87
2024/03/04 15:15:32;;;;;;;31.93;18.23;;;;;;;;;;5087752;28;20179;-87
2024/03/04 15:18:37;;;;;;;27.40;17.57;;;;;;;;;;5098938;28;20182;-88
2024/03/04 15:21:41;;;;;;;27.57;18.43;;;;;;;;;;5087581;28;20175;-87
2024/03/04 15:24:45;;;;;;;28.27;17.30;;;;;;;;;;5051421;28;22137;-88
2024/03/04 15:27:50;;;;;;;27.10;18.20;;;;;;;;;;5036239;28;20237;-88
2024/03/04 15:30:56;;;;;;;27.17;17.53;;;;;;;;;;5039480;28;20212;-88
2024/03/04 15:34:01;;;;;;;33.17;18.77;;;;;;;;;;5046802;28;20188;-88
2024/03/04 15:37:05;;;;;;;29.43;17.97;;;;;;;;;;5058804;28;20180;-88
2024/03/04 15:40:12;;;;;;;30.43;18.77;;;;;;;;;;5058329;28;20215;-87
2024/03/04 15:43:16;;;;;;;28.97;19.23;;;;;;;;;;5058448;28;20207;-88
2024/03/04 15:46:23;;;;;;;28.47;17.40;;;;;;;;;;5041284;28;20192;-87
2024/03/04 15:49:28;;;;;;;28.93;18.70;;;;;;;;;;5027417;28;20180;-90
2024/03/04 15:52:32;;;;;;;28.90;18.33;;;;;;;;;;5038109;28;20185;-89
2024/03/04 15:55:39;;;;;;;28.57;19.00;;;;;;;;;;5038195;28;20188;-89
2024/03/04 15:58:45;;;;;;;32.90;18.77;;;;;;;;;;5037711;28;20177;-89
2024/03/04 16:01:50;;;;;;;28.63;18.53;;;;;;;;;;5037595;28;20209;-90
2024/03/04 16:04:54;;;;;;;31.07;19.53;;;;;;;;;;5026793;28;20205;-90
2024/03/04 16:07:59;;;;;;;34.57;18.13;;;;;;;;;;5037821;28;20180;-90
2024/03/04 16:11:03;;;;;;;35.60;17.97;;;;;;;;;;5048849;28;20238;-91
2024/03/04 16:14:07;;;;;;;40.50;18.50;;;;;;;;;;5026638;28;20656;-91
2024/03/04 16:17:11;;;;;;;36.67;21.37;;;;;;;;;;5037385;28;20180;-91
2024/03/04 16:20:18;;;;;;;31.47;20.20;;;;;;;;;;5026187;28;20220;-91
2024/03/04 16:23:22;;;;;;;28.47;18.10;;;;;;;;;;5045381;28;20212;-91
2024/03/04 16:26:26;;;;;;;30.90;18.80;;;;;;;;;;5045969;28;20188;-91
2024/03/04 16:29:33;;;;;;;53.97;19.00;;;;;;;;;;5046088;28;20177;-90
2024/03/04 16:32:40;;;;;;;32.50;19.67;;;;;;;;;;5034763;28;20629;-91
2024/03/04 16:35:45;;;;;;;29.97;17.97;;;;;;;;;;5034980;28;20177;-91
2024/03/04 16:38:49;;;;;;;34.97;19.53;;;;;;;;;;5034473;28;20633;-91
2024/03/04 16:41:54;;;;;;;35.90;18.67;;;;;;;;;;5056947;28;20637;-92
2024/03/04 16:44:58;;;;;;;28.73;18.20;;;;;;;;;;5033831;28;20216;-90
2024/03/04 16:48:03;;;;;;;29.87;19.23;;;;;;;;;;5045619;28;20184;-90
2024/03/04 16:51:12;;;;;;;34.13;20.23;;;;;;;;;;5034118;28;20219;-90
2024/03/04 16:54:18;;;;;;;38.63;22.10;;;;;;;;;;5045147;28;20176;-90
2024/03/04 16:57:23;;;;;;;34.30;20.10;;;;;;;;;;5045477;28;20188;-90
2024/03/04 17:00:28;;;;;;;33.93;20.33;;;;;;;;;;5044797;28;20232;-88
2024/03/04 17:03:33;;;;;;;35.17;19.30;;;;;;;;;;5045065;28;20200;-89
2024/03/04 17:06:37;;;;;;;39.20;21.27;;;;;;;;;;5057396;28;20180;-89
2024/03/04 17:09:41;;;;;;;39.10;22.93;;;;;;;;;;5058067;28;20224;-88
2024/03/04 17:12:46;;;;;;;39.97;19.67;;;;;;;;;;5056416;28;20522;-88
2024/03/04 17:15:51;;;;;;;38.20;20.33;;;;;;;;;;5056378;28;20180;-89
2024/03/04 17:18:55;;;;;;;40.30;20.23;;;;;;;;;;5055852;28;20184;-89
2024/03/04 17:21:59;;;;;;;37.67;20.70;;;;;;;;;;5057005;28;20184;-90
2024/03/04 17:29:22;;;;;;;37.00;20.47;;;;;;;;;;5055766;28;20177;-91
2024/03/04 17:32:29;;;;;;;35.03;19.63;;;;;;;;;;5044554;28;20518;-89
2024/03/04 17:35:33;;;;;;;34.07;18.90;;;;;;;;;;5055699;28;20172;-89
2024/03/04 17:38:37;;;;;;;32.17;19.17;;;;;;;;;;5055955;28;20188;-91
2024/03/04 17:41:43;;;;;;;38.70;20.53;;;;;;;;;;5067165;28;20184;-89
2024/03/04 17:44:54;;;;;;;35.87;18.83;;;;;;;;;;5056547;28;20205;-91
2024/03/04 17:48:02;;;;;;;37.07;20.73;;;;;;;;;;5055932;28;20645;-89
2024/03/04 17:51:06;;;;;;;33.23;19.83;;;;;;;;;;5023157;28;20216;-89
2024/03/04 17:54:56;;;;;;;35.57;19.30;;;;;;;;;;5051046;28;20177;-89
2024/03/04 17:58:01;;;;;;;35.73;19.87;;;;;;;;;;5055558;28;20176;-90
2024/03/04 18:01:15;;;;;;;35.10;19.83;;;;;;;;;;5054773;28;20231;-90
2024/03/04 18:04:19;;;;;;;35.33;20.10;;;;;;;;;;5032719;28;20207;-90
2024/03/04 18:07:23;;;;;;;37.33;21.33;;;;;;;;;;5056812;28;20633;-91
2024/03/04 18:10:27;;;;;;;33.87;19.27;;;;;;;;;;5055984;28;20220;-92
2024/03/04 18:13:32;;;;;;;36.20;21.50;;;;;;;;;;5056553;28;20177;-88
2024/03/04 18:16:36;;;;;;;39.13;20.20;;;;;;;;;;5044631;28;20176;-89
2024/03/04 18:19:41;;;;;;;41.70;20.30;;;;;;;;;;5046293;28;20684;-92
2024/03/04 18:22:45;;;;;;;39.60;22.13;;;;;;;;;;5056471;28;20184;-91
2024/03/04 18:25:49;;;;;;;39.70;22.10;;;;;;;;;;5044920;28;20172;-90
2024/03/04 18:28:53;;;;;;;38.30;22.63;;;;;;;;;;5046553;28;20184;-89